Time;durP1;ratioP1;P1;durP2;ratioP2;P2;SDS_P1;SDS_P2;PMS_P1;PMS_P2;Temp;Humidity;BMP_temperature;BMP_pressure;BME280_temperature;BME280_humidity;BME280_pressure;Samples;Min_cycle;Max_cycle;Signal;HPM_P1;HPM_P2
2022/05/04 00:00:29;;;;;;;47.03;21.55;;;26.40;99.90;;;;;;5051820;28;20030;-61
2022/05/04 00:02:56;;;;;;;25.67;13.65;;;26.50;99.90;;;;;;5045226;28;20029;-61
2022/05/04 00:05:22;;;;;;;25.20;10.95;;;26.50;99.90;;;;;;5035767;28;20394;-61
2022/05/04 00:07:49;;;;;;;23.05;12.18;;;26.50;99.90;;;;;;5048015;28;20029;-64
2022/05/04 00:10:16;;;;;;;32.05;15.82;;;26.50;99.90;;;;;;5052445;28;20040;-65
2022/05/04 00:12:42;;;;;;;37.17;18.98;;;26.60;99.90;;;;;;5052608;28;20095;-66
2022/05/04 00:15:10;;;;;;;37.72;17.40;;;26.60;99.90;;;;;;5051626;28;20029;-66
2022/05/04 00:17:37;;;;;;;52.15;28.65;;;26.60;99.90;;;;;;5043055;28;20037;-68
2022/05/04 00:20:05;;;;;;;50.20;29.90;;;26.60;99.90;;;;;;5045527;28;20033;-63
2022/05/04 00:22:31;;;;;;;80.55;51.78;;;26.60;99.90;;;;;;5045086;28;20107;-64
2022/05/04 00:24:58;;;;;;;82.15;46.25;;;26.60;99.90;;;;;;5046922;28;20060;-66
2022/05/04 00:27:25;;;;;;;65.82;35.40;;;26.70;99.90;;;;;;5050953;28;20108;-64
2022/05/04 00:29:52;;;;;;;66.78;38.08;;;26.70;99.90;;;;;;5053767;28;20107;-65
2022/05/04 00:32:19;;;;;;;36.20;22.48;;;26.80;99.90;;;;;;5052633;28;20593;-63
2022/05/04 00:34:45;;;;;;;39.83;17.20;;;26.70;99.90;;;;;;5042390;28;20045;-62
2022/05/04 00:37:12;;;;;;;27.83;13.90;;;26.80;99.90;;;;;;5047587;28;20104;-64
2022/05/04 00:39:39;;;;;;;38.17;22.33;;;26.80;99.90;;;;;;5052203;28;20072;-63
2022/05/04 00:42:08;;;;;;;28.08;15.75;;;26.90;99.90;;;;;;5052426;28;20104;-64
2022/05/04 00:44:34;;;;;;;19.38;10.23;;;26.90;99.90;;;;;;5053218;28;20040;-64
2022/05/04 00:47:01;;;;;;;16.33;9.98;;;26.90;99.90;;;;;;5052825;28;20116;-61
2022/05/04 00:49:27;;;;;;;15.32;8.93;;;26.90;99.90;;;;;;5037018;28;20466;-61
2022/05/04 00:51:54;;;;;;;30.05;17.15;;;26.90;99.90;;;;;;5033406;28;20041;-62
2022/05/04 00:54:21;;;;;;;45.05;33.85;;;27.00;99.90;;;;;;5033118;28;20467;-61
2022/05/04 00:56:48;;;;;;;24.85;15.18;;;27.00;99.90;;;;;;5032570;28;20030;-62
2022/05/04 00:59:15;;;;;;;27.70;17.80;;;27.10;99.90;;;;;;5033371;28;20036;-61
2022/05/04 01:01:43;;;;;;;24.40;11.70;;;27.10;99.90;;;;;;5033258;28;20025;-63
2022/05/04 01:04:10;;;;;;;20.85;11.55;;;27.20;99.90;;;;;;5033298;28;20033;-61
2022/05/04 01:06:36;;;;;;;26.90;12.52;;;27.20;99.90;;;;;;5033300;28;20025;-63
2022/05/04 01:09:03;;;;;;;26.58;14.43;;;27.20;99.90;;;;;;5033227;28;20537;-62
2022/05/04 01:11:30;;;;;;;28.60;18.88;;;27.30;99.90;;;;;;5033009;28;20079;-61
2022/05/04 01:13:59;;;;;;;25.75;13.18;;;27.50;99.90;;;;;;5033270;28;20041;-63
2022/05/04 01:16:27;;;;;;;45.13;25.40;;;27.50;99.90;;;;;;5035187;28;20025;-63
2022/05/04 01:18:53;;;;;;;75.32;43.67;;;27.60;99.90;;;;;;5036800;28;20060;-67
2022/05/04 01:21:20;;;;;;;42.00;25.08;;;27.70;99.90;;;;;;5037181;28;20064;-66
2022/05/04 01:23:47;;;;;;;26.67;12.38;;;27.80;99.90;;;;;;5037059;28;20486;-64
2022/05/04 01:26:17;;;;;;;21.73;12.05;;;27.80;99.90;;;;;;5047537;28;20091;-61
2022/05/04 01:28:44;;;;;;;43.58;26.42;;;27.90;99.90;;;;;;5046937;28;20493;-64
2022/05/04 01:31:11;;;;;;;41.08;28.77;;;28.00;99.90;;;;;;5047164;28;20037;-64
2022/05/04 01:33:40;;;;;;;53.55;32.95;;;28.10;99.90;;;;;;5036854;28;20418;-65
2022/05/04 01:36:07;;;;;;;33.78;20.05;;;28.20;99.90;;;;;;5036880;28;20096;-63
2022/05/04 01:38:34;;;;;;;34.15;15.77;;;28.30;99.90;;;;;;5036758;28;20034;-62
2022/05/04 01:41:02;;;;;;;32.35;14.45;;;28.40;99.90;;;;;;5036623;28;20026;-64
2022/05/04 01:43:29;;;;;;;31.08;12.93;;;28.50;99.90;;;;;;5036476;28;20491;-63
2022/05/04 01:45:55;;;;;;;40.30;14.18;;;28.60;99.90;;;;;;5036663;28;20029;-63
2022/05/04 01:48:23;;;;;;;34.42;14.20;;;28.70;99.90;;;;;;5036696;28;20033;-62
2022/05/04 01:50:49;;;;;;;15.45;7.35;;;28.80;99.90;;;;;;5036646;28;20030;-62
2022/05/04 01:53:16;;;;;;;12.70;6.10;;;28.80;99.90;;;;;;5036847;28;20108;-64
2022/05/04 01:55:44;;;;;;;19.33;6.95;;;28.70;99.90;;;;;;5056655;28;20029;-65
2022/05/04 01:58:12;;;;;;;70.60;10.45;;;28.90;99.90;;;;;;5056336;28;20025;-62
2022/05/04 02:00:39;;;;;;;24.85;12.07;;;29.10;99.90;;;;;;5056373;28;20083;-63
2022/05/04 02:03:06;;;;;;;13.88;6.40;;;29.10;99.90;;;;;;5056294;28;20029;-64
2022/05/04 02:05:33;;;;;;;15.82;7.70;;;29.30;99.90;;;;;;5056372;28;20033;-63
2022/05/04 02:07:59;;;;;;;9.25;4.90;;;29.40;99.90;;;;;;5055948;28;20394;-60
2022/05/04 02:10:26;;;;;;;8.20;5.00;;;29.60;99.90;;;;;;5056242;28;20434;-59
2022/05/04 02:12:53;;;;;;;9.27;4.40;;;29.50;99.90;;;;;;5055805;28;20063;-62
2022/05/04 02:15:21;;;;;;;8.52;4.00;;;29.60;99.90;;;;;;5056048;28;20393;-63
2022/05/04 02:17:47;;;;;;;8.68;4.65;;;29.70;99.90;;;;;;5055806;28;20462;-61
2022/05/04 02:20:14;;;;;;;7.45;4.20;;;29.70;99.90;;;;;;5055781;28;20382;-59
2022/05/04 02:22:41;;;;;;;6.72;3.25;;;29.70;99.90;;;;;;5055885;28;20028;-61
2022/05/04 02:25:08;;;;;;;7.32;3.90;;;29.70;99.90;;;;;;5055943;28;20021;-63
2022/05/04 02:27:35;;;;;;;6.15;4.13;;;29.70;99.90;;;;;;5055483;28;20079;-64
2022/05/04 02:30:01;;;;;;;11.13;6.47;;;29.70;99.90;;;;;;5055734;28;20493;-60
2022/05/04 02:32:28;;;;;;;14.68;6.38;;;29.80;99.90;;;;;;5036116;28;20382;-62
2022/05/04 02:40:12;;;;;;;43.65;31.17;;;30.20;99.90;;;;;;5035796;28;20471;-59
2022/05/04 02:42:39;;;;;;;38.35;28.65;;;30.30;99.90;;;;;;5035406;28;20549;-63
2022/05/04 02:45:06;;;;;;;32.67;24.02;;;30.40;99.90;;;;;;5035612;28;20445;-63
2022/05/04 02:47:33;;;;;;;36.17;27.48;;;30.60;99.90;;;;;;5035664;28;20033;-60
2022/05/04 02:49:59;;;;;;;47.00;27.45;;;30.60;99.90;;;;;;5035448;28;20049;-62
2022/05/04 02:52:26;;;;;;;52.15;29.95;;;30.70;99.90;;;;;;5035771;28;20092;-62
2022/05/04 02:54:53;;;;;;;65.68;35.30;;;30.80;99.90;;;;;;5035398;28;20382;-60
2022/05/04 02:57:19;;;;;;;53.15;21.98;;;30.80;99.90;;;;;;5035160;28;20034;-60
2022/05/04 02:59:46;;;;;;;21.90;11.27;;;31.00;99.90;;;;;;5049717;28;20029;-62
2022/05/04 03:04:51;;;;;;;49.85;27.58;;;31.00;99.90;;;;;;5054919;28;20482;-58
2022/05/04 03:07:18;;;;;;;100.50;65.82;;;31.20;99.90;;;;;;5055032;28;20060;-58
2022/05/04 03:09:44;;;;;;;37.15;23.25;;;31.20;99.90;;;;;;5051869;28;20037;-59
2022/05/04 03:12:11;;;;;;;69.05;44.13;;;31.20;99.90;;;;;;5054683;28;20031;-62
2022/05/04 03:14:38;;;;;;;52.30;36.88;;;31.30;99.90;;;;;;5054890;28;20385;-60
2022/05/04 03:17:05;;;;;;;47.90;32.55;;;31.20;99.90;;;;;;5039013;28;20125;-60
2022/05/04 03:19:32;;;;;;;53.58;34.05;;;31.20;99.90;;;;;;5033980;28;20364;-60
2022/05/04 03:21:58;;;;;;;25.45;16.83;;;31.20;99.90;;;;;;5033934;28;20046;-63
2022/05/04 03:24:25;;;;;;;26.73;15.95;;;31.30;99.90;;;;;;5033896;28;20390;-60
2022/05/04 03:26:52;;;;;;;42.45;23.30;;;31.40;99.90;;;;;;5033518;28;20025;-61
2022/05/04 03:29:18;;;;;;;31.35;16.77;;;31.40;99.90;;;;;;5044153;28;20398;-60
2022/05/04 03:31:45;;;;;;;30.27;16.98;;;31.40;99.90;;;;;;5043038;28;20556;-60
2022/05/04 03:34:12;;;;;;;22.63;12.85;;;31.50;99.90;;;;;;5042455;28;20032;-60
2022/05/04 03:36:39;;;;;;;17.17;11.48;;;31.50;99.90;;;;;;5041576;28;20446;-60
2022/05/04 03:39:07;;;;;;;13.65;8.50;;;31.50;99.90;;;;;;5042478;28;20462;-60
2022/05/04 03:41:34;;;;;;;15.90;8.13;;;31.50;99.90;;;;;;5041963;28;20033;-60
2022/05/04 03:44:01;;;;;;;10.45;7.28;;;31.60;99.90;;;;;;5042481;28;20025;-60
2022/05/04 03:46:40;;;;;;;14.20;8.52;;;31.60;99.90;;;;;;5042930;28;20048;-63
2022/05/04 03:49:08;;;;;;;15.63;8.15;;;31.70;99.90;;;;;;5042896;28;20029;-60
2022/05/04 03:51:35;;;;;;;13.02;7.00;;;31.70;99.90;;;;;;5042017;28;20061;-61
2022/05/04 03:54:02;;;;;;;17.80;8.10;;;31.90;99.80;;;;;;5043597;28;20021;-60
2022/05/04 03:56:29;;;;;;;16.38;7.78;;;31.90;99.40;;;;;;5043063;28;20501;-60
2022/05/04 03:58:55;;;;;;;5.68;4.72;;;32.00;99.50;;;;;;5041894;28;20014;-59
2022/05/04 04:01:22;;;;;;;12.40;5.88;;;32.10;98.40;;;;;;5043557;28;20363;-60
2022/05/04 04:03:49;;;;;;;9.82;5.85;;;32.10;98.60;;;;;;5043216;28;20021;-61
2022/05/04 04:06:16;;;;;;;13.05;6.57;;;32.10;98.50;;;;;;5041803;28;20096;-60
2022/05/04 04:08:42;;;;;;;9.30;5.82;;;32.20;98.70;;;;;;5043464;28;20024;-60
2022/05/04 04:11:10;;;;;;;11.38;5.35;;;32.30;98.30;;;;;;5042398;28;20474;-60
2022/05/04 04:13:38;;;;;;;6.97;4.85;;;32.20;98.00;;;;;;5043899;28;20021;-63
2022/05/04 04:16:05;;;;;;;9.05;5.18;;;32.30;97.90;;;;;;5042576;28;20022;-61
2022/05/04 04:18:33;;;;;;;7.65;5.10;;;32.30;97.60;;;;;;4950302;28;2623728;-63
2022/05/04 04:23:30;;;;;;;12.27;5.72;;;32.30;98.00;;;;;;5053496;28;20044;-65
2022/05/04 04:25:56;;;;;;;11.93;6.03;;;32.30;97.70;;;;;;5053466;28;20035;-64
2022/05/04 04:28:23;;;;;;;7.90;5.28;;;32.20;98.10;;;;;;5053635;28;20040;-61
2022/05/04 04:30:50;;;;;;;6.43;5.03;;;32.20;98.10;;;;;;5047671;28;20100;-62
2022/05/04 04:33:16;;;;;;;5.88;4.07;;;32.40;97.50;;;;;;5044762;28;20033;-60
2022/05/04 04:35:43;;;;;;;10.52;5.85;;;32.50;97.30;;;;;;5044106;28;20482;-59
2022/05/04 04:38:10;;;;;;;10.95;6.20;;;32.70;97.10;;;;;;5042722;28;20017;-59
2022/05/04 04:40:36;;;;;;;7.90;4.57;;;32.70;97.50;;;;;;5050227;28;20024;-60
2022/05/04 04:43:03;;;;;;;7.65;4.93;;;32.70;96.40;;;;;;5046355;28;20032;-61
2022/05/04 04:45:30;;;;;;;5.72;4.97;;;32.80;95.90;;;;;;5033476;28;20029;-61
2022/05/04 04:47:57;;;;;;;10.30;5.22;;;32.70;95.90;;;;;;5033238;28;20112;-60
2022/05/04 04:50:24;;;;;;;9.15;5.05;;;32.80;95.80;;;;;;5032454;28;20040;-60
2022/05/04 04:52:51;;;;;;;10.15;5.07;;;32.70;95.80;;;;;;5033277;28;20029;-60
2022/05/04 04:55:17;;;;;;;8.35;4.70;;;32.70;96.60;;;;;;5032835;28;20359;-60
2022/05/04 04:57:44;;;;;;;9.40;5.80;;;32.90;95.70;;;;;;5033496;28;20030;-60
2022/05/04 05:00:12;;;;;;;8.32;4.63;;;32.90;95.70;;;;;;5033410;28;20025;-60
2022/05/04 05:02:40;;;;;;;9.05;5.45;;;32.90;94.50;;;;;;5033122;28;20030;-60
2022/05/04 05:05:08;;;;;;;6.47;4.63;;;32.90;95.10;;;;;;5033284;28;20387;-59
2022/05/04 05:07:36;;;;;;;8.05;5.40;;;33.00;95.10;;;;;;5033268;28;20104;-60
2022/05/04 05:10:03;;;;;;;8.38;5.72;;;33.10;95.40;;;;;;5033078;28;20028;-60
2022/05/04 05:12:30;;;;;;;7.05;4.95;;;33.10;95.10;;;;;;5033267;28;20371;-60
2022/05/04 05:17:36;;;;;;;11.25;6.45;;;33.10;94.20;;;;;;5032850;28;20387;-61
2022/05/04 05:20:04;;;;;;;7.93;5.32;;;33.10;94.60;;;;;;5033290;28;20086;-61
2022/05/04 05:22:31;;;;;;;9.32;5.60;;;33.20;94.70;;;;;;5032644;28;20501;-60
2022/05/04 05:24:58;;;;;;;7.20;5.53;;;33.20;95.00;;;;;;5033069;28;20030;-60
2022/05/04 05:27:25;;;;;;;8.85;5.45;;;33.40;94.50;;;;;;5033056;28;20029;-61
2022/05/04 05:29:51;;;;;;;10.20;5.18;;;33.40;94.50;;;;;;5032966;28;20497;-60
2022/05/04 05:32:18;;;;;;;8.07;4.80;;;33.40;93.80;;;;;;5033018;28;20044;-61
2022/05/04 05:34:45;;;;;;;6.78;4.43;;;33.40;93.30;;;;;;5032941;28;20030;-61
2022/05/04 05:37:13;;;;;;;5.68;4.53;;;33.40;93.20;;;;;;5032929;28;20026;-61
2022/05/04 05:39:40;;;;;;;5.35;4.85;;;33.40;93.40;;;;;;5033006;28;20025;-61
2022/05/04 05:42:08;;;;;;;8.32;5.13;;;33.60;93.70;;;;;;5033145;28;20489;-60
2022/05/04 05:44:35;;;;;;;13.20;6.05;;;33.60;93.20;;;;;;5032748;28;20025;-60
2022/05/04 05:47:02;;;;;;;9.65;5.65;;;33.60;92.80;;;;;;5032889;28;20033;-60
2022/05/04 05:49:29;;;;;;;5.38;4.38;;;33.50;93.10;;;;;;5032859;28;20025;-61
2022/05/04 05:51:56;;;;;;;7.90;4.80;;;33.60;92.50;;;;;;5032805;28;20026;-60
2022/05/04 05:54:22;;;;;;;7.43;5.18;;;33.60;92.80;;;;;;5032776;28;20076;-61
2022/05/04 05:56:49;;;;;;;8.18;4.85;;;33.60;92.90;;;;;;5032758;28;20036;-60
2022/05/04 05:59:16;;;;;;;8.95;4.60;;;33.70;92.30;;;;;;5032792;28;20021;-60
2022/05/04 06:01:43;;;;;;;8.60;4.60;;;33.80;91.60;;;;;;5033404;28;20032;-60
2022/05/04 06:04:10;;;;;;;5.38;4.40;;;33.80;91.00;;;;;;5036495;28;20161;-60
2022/05/04 06:06:37;;;;;;;7.15;4.63;;;33.80;91.30;;;;;;5036269;28;20026;-60
2022/05/04 06:09:05;;;;;;;10.05;5.60;;;33.80;91.20;;;;;;5036116;28;20052;-60
2022/05/04 06:11:31;;;;;;;6.13;5.53;;;33.80;91.90;;;;;;5036164;28;20029;-61
2022/05/04 06:13:58;;;;;;;7.20;5.55;;;33.80;92.10;;;;;;5036108;28;20104;-61
2022/05/04 06:16:25;;;;;;;8.95;5.55;;;33.80;92.10;;;;;;5035963;28;20026;-60
2022/05/04 06:18:51;;;;;;;6.13;4.68;;;33.80;91.90;;;;;;5035687;28;20061;-60
2022/05/04 06:21:18;;;;;;;6.90;4.53;;;33.90;91.00;;;;;;5035967;28;20029;-60
2022/05/04 06:23:45;;;;;;;6.18;4.70;;;33.90;90.50;;;;;;5035798;28;20053;-61
2022/05/04 06:26:13;;;;;;;6.90;5.32;;;33.90;89.80;;;;;;5035924;28;20470;-61
2022/05/04 06:28:39;;;;;;;7.53;5.20;;;33.90;91.20;;;;;;5035875;28;20397;-61
2022/05/04 06:36:07;;;;;;;9.43;5.70;;;34.00;90.10;;;;;;5035497;28;20044;-61
2022/05/04 06:38:33;;;;;;;7.53;5.28;;;33.90;91.10;;;;;;5036255;28;20029;-61
2022/05/04 06:41:00;;;;;;;7.40;4.72;;;33.90;90.40;;;;;;5035835;28;20025;-60
2022/05/04 06:43:27;;;;;;;7.70;4.97;;;33.90;89.20;;;;;;5035592;28;20029;-60
2022/05/04 06:45:54;;;;;;;6.57;4.72;;;33.80;89.00;;;;;;5035105;28;20482;-61
2022/05/04 06:48:20;;;;;;;7.53;5.68;;;33.80;90.20;;;;;;5035498;28;20037;-61
2022/05/04 06:50:47;;;;;;;9.48;5.63;;;33.80;88.90;;;;;;5035455;28;20103;-60
2022/05/04 06:53:14;;;;;;;13.68;8.55;;;33.90;90.10;;;;;;5035233;28;20044;-60
2022/05/04 06:55:40;;;;;;;9.45;6.45;;;34.00;90.90;;;;;;5035428;28;20026;-60
2022/05/04 06:58:07;;;;;;;10.15;6.40;;;34.10;90.20;;;;;;5035327;28;20025;-60
2022/05/04 07:00:34;;;;;;;6.68;5.95;;;34.00;90.50;;;;;;5035107;28;20030;-61
2022/05/04 07:03:00;;;;;;;8.52;6.07;;;34.00;90.00;;;;;;5035247;28;20026;-61
2022/05/04 07:05:27;;;;;;;9.57;6.45;;;33.90;89.70;;;;;;5035192;28;20095;-61
2022/05/04 07:07:54;;;;;;;8.10;6.40;;;33.90;89.60;;;;;;5034883;28;20463;-61
2022/05/04 07:10:21;;;;;;;10.45;6.53;;;33.90;90.10;;;;;;5034844;28;20521;-61
2022/05/04 07:12:48;;;;;;;9.20;6.65;;;33.90;90.20;;;;;;5034471;28;20033;-60
2022/05/04 07:15:15;;;;;;;6.97;5.78;;;33.80;89.80;;;;;;5034326;28;20429;-61
2022/05/04 07:17:43;;;;;;;15.80;7.95;;;33.80;88.60;;;;;;5034818;28;20049;-61
2022/05/04 07:20:10;;;;;;;15.60;7.97;;;33.50;90.60;;;;;;5034904;28;20029;-61
2022/05/04 07:22:37;;;;;;;24.90;9.85;;;33.00;93.10;;;;;;5034651;28;20029;-60
2022/05/04 07:25:04;;;;;;;13.40;8.98;;;32.40;96.20;;;;;;5034824;28;20033;-60
2022/05/04 07:27:31;;;;;;;23.83;10.60;;;31.40;99.60;;;;;;5034750;28;20083;-60
2022/05/04 07:29:58;;;;;;;30.25;12.43;;;31.00;99.90;;;;;;5034522;28;20079;-59
2022/05/04 07:32:24;;;;;;;22.08;10.88;;;30.50;99.90;;;;;;5034681;28;20030;-60
2022/05/04 07:34:51;;;;;;;14.40;8.88;;;30.00;99.90;;;;;;5034251;28;20394;-60
2022/05/04 07:37:17;;;;;;;17.60;9.55;;;29.40;99.90;;;;;;5034429;28;20037;-60
2022/05/04 07:42:26;;;;;;;13.80;8.45;;;28.50;99.90;;;;;;5034233;28;20049;-61
2022/05/04 07:45:01;;;;;;;21.85;8.70;;;28.30;99.90;;;;;;5034383;28;20029;-61
2022/05/04 07:47:30;;;;;;;12.93;7.10;;;28.20;99.90;;;;;;5034395;28;20025;-61
2022/05/04 07:49:58;;;;;;;15.88;7.80;;;28.30;99.90;;;;;;5034185;28;20026;-60
2022/05/04 07:52:25;;;;;;;11.57;7.25;;;28.30;99.90;;;;;;5034302;28;20366;-60
2022/05/04 07:54:52;;;;;;;8.13;5.45;;;28.30;99.90;;;;;;5034231;28;20041;-60
2022/05/04 07:57:19;;;;;;;11.15;6.57;;;28.30;99.90;;;;;;5034070;28;20049;-60
2022/05/04 08:05:03;;;;;;;7.07;4.88;;;28.50;99.90;;;;;;5033825;28;20394;-60
2022/05/04 08:07:30;;;;;;;8.45;5.47;;;28.50;99.90;;;;;;5034063;28;20029;-60
2022/05/04 08:09:57;;;;;;;8.90;6.05;;;28.60;99.90;;;;;;5033930;28;20065;-61
2022/05/04 08:12:23;;;;;;;11.52;7.70;;;28.50;99.90;;;;;;5034206;28;20033;-60
2022/05/04 08:14:50;;;;;;;8.95;7.10;;;28.50;99.90;;;;;;5033886;28;20033;-60
2022/05/04 08:17:17;;;;;;;14.65;10.02;;;28.40;99.90;;;;;;5033470;28;20049;-60
2022/05/04 08:19:44;;;;;;;20.38;12.75;;;28.40;99.90;;;;;;5033815;28;20552;-60
2022/05/04 08:22:14;;;;;;;37.05;18.30;;;28.50;99.90;;;;;;5033804;28;20390;-60
2022/05/04 08:24:41;;;;;;;47.97;22.75;;;28.60;99.90;;;;;;5033548;28;20439;-60
2022/05/04 08:27:07;;;;;;;47.55;21.80;;;28.70;99.90;;;;;;5033712;28;20055;-61
2022/05/04 08:29:34;;;;;;;20.25;12.50;;;28.70;99.90;;;;;;5033697;28;20044;-61
2022/05/04 08:32:01;;;;;;;24.83;11.73;;;28.80;99.90;;;;;;5033584;28;20029;-63
2022/05/04 08:34:28;;;;;;;10.07;9.02;;;28.80;99.90;;;;;;5033524;28;20033;-63
2022/05/04 08:36:54;;;;;;;20.77;12.27;;;28.90;99.90;;;;;;5033605;28;20030;-60
2022/05/04 08:39:21;;;;;;;19.27;10.70;;;28.80;99.90;;;;;;5033698;28;20025;-60
2022/05/04 08:41:48;;;;;;;13.23;7.88;;;28.90;99.90;;;;;;5033542;28;20073;-60
2022/05/04 08:44:14;;;;;;;10.00;7.28;;;28.80;99.90;;;;;;5033480;28;20064;-61
2022/05/04 08:46:42;;;;;;;15.10;9.07;;;28.80;99.90;;;;;;5033321;28;20051;-60
2022/05/04 08:49:13;;;;;;;27.55;13.77;;;28.70;99.90;;;;;;5033425;28;20033;-60
2022/05/04 08:51:41;;;;;;;27.27;13.77;;;28.70;99.90;;;;;;5033467;28;20076;-62
2022/05/04 08:54:09;;;;;;;18.27;10.10;;;28.70;99.90;;;;;;5033082;28;20025;-60
2022/05/04 08:56:36;;;;;;;17.13;8.68;;;28.70;99.90;;;;;;5033355;28;20406;-62
2022/05/04 08:59:05;;;;;;;8.10;7.03;;;28.50;99.90;;;;;;5033360;28;20025;-59
2022/05/04 09:01:37;;;;;;;7.75;5.72;;;28.40;99.90;;;;;;5033178;28;20026;-61
2022/05/04 09:04:05;;;;;;;9.07;5.40;;;28.30;99.90;;;;;;5033252;28;20368;-61
2022/05/04 09:06:33;;;;;;;6.60;4.97;;;28.30;99.90;;;;;;5033220;28;20033;-62
2022/05/04 09:09:08;;;;;;;11.50;10.40;;;28.20;99.90;;;;;;5033123;28;20021;-62
2022/05/04 09:11:38;;;;;;;19.55;17.58;;;28.10;99.90;;;;;;5033192;28;20128;-61
2022/05/04 09:14:09;;;;;;;13.00;11.60;;;28.10;99.90;;;;;;5032981;28;20021;-62
2022/05/04 09:16:36;;;;;;;12.23;10.18;;;28.20;99.90;;;;;;5033174;28;20018;-60
2022/05/04 09:19:07;;;;;;;5.60;4.95;;;28.30;99.90;;;;;;5032791;28;20106;-62
2022/05/04 09:21:34;;;;;;;6.38;5.30;;;28.30;99.90;;;;;;5032967;28;20033;-62
2022/05/04 09:24:01;;;;;;;9.35;5.65;;;28.30;99.90;;;;;;5033153;28;20029;-60
2022/05/04 09:26:28;;;;;;;7.45;5.85;;;28.30;99.90;;;;;;5033120;28;20426;-62
2022/05/04 09:29:04;;;;;;;5.75;5.00;;;28.30;99.90;;;;;;5033152;28;20033;-63
2022/05/04 09:31:31;;;;;;;7.35;5.40;;;28.30;99.90;;;;;;5033044;28;20029;-62
2022/05/04 09:34:00;;;;;;;6.95;5.10;;;28.40;99.90;;;;;;5033019;28;20033;-66
2022/05/04 09:36:31;;;;;;;43.08;37.67;;;28.40;99.90;;;;;;5032986;28;20482;-66
2022/05/04 09:46:50;;;;;;;6.65;4.30;;;28.30;99.90;;;;;;5036206;28;20018;-66
2022/05/04 09:49:22;;;;;;;6.93;3.72;;;28.30;99.90;;;;;;5036508;28;20040;-66
2022/05/04 09:51:53;;;;;;;4.43;3.58;;;28.20;99.90;;;;;;5036540;28;20398;-65
2022/05/04 09:54:27;;;;;;;7.17;4.33;;;28.30;99.90;;;;;;5036405;28;20544;-62
2022/05/04 09:56:54;;;;;;;5.93;4.43;;;28.30;99.90;;;;;;5036702;28;20036;-60
2022/05/04 09:59:23;;;;;;;8.57;4.60;;;28.20;99.90;;;;;;5036262;28;20127;-60
2022/05/04 10:01:51;;;;;;;9.27;4.72;;;28.20;99.90;;;;;;5036401;28;20017;-60
2022/05/04 10:04:20;;;;;;;7.72;4.50;;;28.20;99.90;;;;;;5036320;28;20395;-62
2022/05/04 10:06:51;;;;;;;7.15;4.43;;;28.10;99.90;;;;;;5036179;28;20025;-62
2022/05/04 10:09:19;;;;;;;8.55;4.38;;;28.10;99.90;;;;;;5036259;28;20053;-62
2022/05/04 10:11:46;;;;;;;5.30;4.20;;;28.10;99.90;;;;;;5036156;28;20025;-62
2022/05/04 10:14:16;;;;;;;5.85;4.50;;;28.10;99.90;;;;;;5035809;28;20032;-62
2022/05/04 10:17:03;;;;;;;9.07;5.38;;;28.10;99.90;;;;;;5036123;28;20040;-64
2022/05/04 10:19:52;;;;;;;6.50;5.03;;;28.10;99.90;;;;;;5035920;28;20060;-63
2022/05/04 10:22:29;;;;;;;10.45;6.85;;;28.10;99.90;;;;;;5036019;28;20471;-61
2022/05/04 10:25:00;;;;;;;10.30;7.57;;;28.00;99.90;;;;;;5034793;28;20025;-61
2022/05/04 10:27:28;;;;;;;24.33;18.27;;;28.10;99.90;;;;;;5036002;28;20036;-63
2022/05/04 10:32:35;;;;;;;29.48;26.30;;;28.00;99.90;;;;;;5035655;28;20027;-64
2022/05/04 10:35:12;;;;;;;35.45;30.40;;;28.10;99.90;;;;;;5035741;28;20029;-65
2022/05/04 10:37:59;;;;;;;16.60;11.63;;;28.00;99.90;;;;;;5035813;28;20021;-65
2022/05/04 10:40:44;;;;;;;14.88;10.07;;;27.90;99.90;;;;;;5035426;28;20025;-62
2022/05/04 10:43:17;;;;;;;13.07;8.20;;;27.90;99.90;;;;;;5035741;28;20467;-65
2022/05/04 10:45:45;;;;;;;8.93;7.18;;;27.90;99.90;;;;;;5040954;28;20045;-58
2022/05/04 10:48:21;;;;;;;11.48;7.10;;;27.90;99.90;;;;;;5044141;28;20029;-62
2022/05/04 10:51:03;;;;;;;15.32;8.13;;;27.80;99.90;;;;;;5055464;28;20060;-63
2022/05/04 10:53:33;;;;;;;11.38;8.80;;;27.80;99.90;;;;;;5055237;28;20068;-61
2022/05/04 10:56:01;;;;;;;10.82;7.13;;;27.80;99.90;;;;;;5055463;28;20032;-62
2022/05/04 10:58:42;;;;;;;11.95;7.65;;;27.80;99.90;;;;;;5055359;28;20078;-62
2022/05/04 11:01:20;;;;;;;9.30;6.93;;;27.80;99.90;;;;;;5046341;28;20530;-62
2022/05/04 11:04:11;;;;;;;9.00;5.82;;;27.80;99.90;;;;;;5045856;28;20477;-61
2022/05/04 11:06:45;;;;;;;9.55;4.68;;;27.80;99.90;;;;;;5050153;28;20520;-61
2022/05/04 11:09:16;;;;;;;9.30;4.40;;;27.70;99.90;;;;;;5043720;28;20033;-60
2022/05/04 11:11:47;;;;;;;10.65;4.65;;;27.60;99.90;;;;;;5044825;28;20379;-61
2022/05/04 11:14:15;;;;;;;11.63;5.18;;;27.50;99.90;;;;;;5043494;28;20025;-61
2022/05/04 11:16:44;;;;;;;6.43;4.88;;;27.50;99.90;;;;;;5041764;28;20550;-64
2022/05/04 11:19:14;;;;;;;9.32;5.40;;;27.60;99.90;;;;;;5045299;28;20057;-64
2022/05/04 11:21:41;;;;;;;9.57;4.90;;;27.50;99.90;;;;;;5044291;28;20048;-64
2022/05/04 11:24:13;;;;;;;5.35;4.25;;;27.50;99.90;;;;;;5044362;28;20025;-63
2022/05/04 11:26:42;;;;;;;10.85;5.47;;;27.50;99.90;;;;;;5048297;28;20032;-64
2022/05/04 11:29:15;;;;;;;11.68;5.40;;;27.50;99.90;;;;;;5046673;28;20049;-62
2022/05/04 11:31:47;;;;;;;6.82;3.60;;;27.50;99.90;;;;;;5054420;28;20037;-60
2022/05/04 11:34:20;;;;;;;7.70;4.80;;;27.50;99.90;;;;;;5042389;28;20195;-66
2022/05/04 11:36:49;;;;;;;12.73;5.03;;;27.50;99.90;;;;;;5034718;28;20029;-60
2022/05/04 11:39:18;;;;;;;7.40;4.13;;;27.50;99.90;;;;;;5034364;28;20021;-59
2022/05/04 11:41:47;;;;;;;5.90;3.97;;;27.50;99.90;;;;;;5034849;28;20017;-64
2022/05/04 11:44:14;;;;;;;7.43;4.13;;;27.50;99.90;;;;;;5034403;28;20482;-63
2022/05/04 11:46:45;;;;;;;9.82;4.30;;;27.40;99.90;;;;;;5034408;28;20033;-63
2022/05/04 11:49:12;;;;;;;13.20;3.88;;;27.30;99.90;;;;;;5047499;28;20607;-65
2022/05/04 11:51:39;;;;;;;9.25;4.22;;;27.30;99.90;;;;;;5034397;28;20030;-65
2022/05/04 11:54:06;;;;;;;10.55;4.50;;;27.30;99.90;;;;;;5043756;28;20550;-65
2022/05/04 11:56:35;;;;;;;6.13;3.03;;;27.30;99.90;;;;;;5048367;28;20034;-65
2022/05/04 11:59:02;;;;;;;7.10;3.53;;;27.20;99.90;;;;;;5043824;28;20021;-66
2022/05/04 12:01:30;;;;;;;5.88;3.40;;;27.20;99.90;;;;;;5044507;28;20498;-66
2022/05/04 12:03:57;;;;;;;7.40;4.32;;;27.20;99.90;;;;;;5042598;28;20036;-65
2022/05/04 12:06:25;;;;;;;8.63;3.65;;;27.20;99.90;;;;;;5038700;28;20501;-66
2022/05/04 12:08:52;;;;;;;6.65;3.80;;;27.20;99.90;;;;;;5039025;28;20040;-65
2022/05/04 12:11:19;;;;;;;7.90;3.97;;;27.30;99.90;;;;;;5034049;28;20378;-62
2022/05/04 12:13:46;;;;;;;9.38;4.88;;;27.30;99.90;;;;;;5041473;28;20502;-63
2022/05/04 12:16:13;;;;;;;7.22;4.22;;;27.40;99.90;;;;;;5053752;28;20385;-62
2022/05/04 12:18:40;;;;;;;5.20;3.60;;;27.40;99.90;;;;;;5043407;28;20073;-68
2022/05/04 12:21:08;;;;;;;7.53;3.90;;;27.30;99.90;;;;;;5043270;28;20099;-65
2022/05/04 12:23:38;;;;;;;8.10;3.63;;;27.30;99.90;;;;;;5043320;28;20424;-63
2022/05/04 12:26:05;;;;;;;7.57;3.28;;;27.40;99.90;;;;;;5044406;28;20380;-64
2022/05/04 12:28:32;;;;;;;11.32;3.65;;;27.40;99.90;;;;;;5042769;28;20072;-61
2022/05/04 12:33:32;;;;;;;7.05;3.78;;;27.50;99.90;;;;;;5041276;28;20021;-65
2022/05/04 12:36:04;;;;;;;6.20;3.65;;;27.40;99.90;;;;;;5043509;28;20501;-64
2022/05/04 12:38:33;;;;;;;6.35;3.58;;;27.50;99.90;;;;;;5042411;28;20032;-64
2022/05/04 12:41:01;;;;;;;10.50;3.63;;;27.40;99.90;;;;;;5038845;28;20505;-64
2022/05/04 12:43:37;;;;;;;11.02;4.70;;;27.50;99.90;;;;;;5033566;28;20030;-65
2022/05/04 12:46:18;;;;;;;9.45;4.05;;;27.50;99.90;;;;;;5037387;28;20036;-66
2022/05/04 12:48:48;;;;;;;5.70;3.28;;;27.50;99.90;;;;;;5053408;28;20037;-66
2022/05/04 12:51:17;;;;;;;7.57;3.83;;;27.40;99.90;;;;;;5053655;28;20056;-65
2022/05/04 12:53:49;;;;;;;5.45;3.08;;;27.50;99.90;;;;;;5052838;28;20029;-67
2022/05/04 12:58:55;;;;;;;4.57;2.72;;;27.40;99.90;;;;;;5041006;28;20502;-63
2022/05/04 13:01:24;;;;;;;6.30;3.33;;;27.40;99.90;;;;;;5044415;28;20381;-66
2022/05/04 13:03:52;;;;;;;8.70;3.38;;;27.40;99.90;;;;;;5053364;28;20053;-64
2022/05/04 13:06:20;;;;;;;6.60;3.00;;;27.40;99.90;;;;;;5052993;28;20036;-66
2022/05/04 13:08:48;;;;;;;8.98;3.67;;;27.20;99.90;;;;;;5052991;28;20429;-64
2022/05/04 13:11:16;;;;;;;4.65;2.42;;;27.20;99.90;;;;;;5044240;28;20037;-64
2022/05/04 13:13:43;;;;;;;5.05;2.83;;;27.30;99.90;;;;;;5046455;28;20026;-65
2022/05/04 13:16:10;;;;;;;6.75;2.90;;;27.30;99.90;;;;;;5046397;28;20052;-65
2022/05/04 13:18:38;;;;;;;7.72;3.38;;;27.30;99.90;;;;;;5047462;28;20044;-66
2022/05/04 13:21:05;;;;;;;9.90;3.47;;;27.30;99.90;;;;;;5046603;28;20029;-67
2022/05/04 13:23:32;;;;;;;6.95;3.58;;;27.30;99.90;;;;;;5043045;28;20036;-64